WIDD/BTH METAR and TAF weather

Enter ICAO airport designator
Station Type Date Time Source
WIDD METAR 2024/04/18 06:30 UTC NOAA

WIDD 180630Z 34003KT 9999 FEW014 30/24 Q1009 NOSIG


Station Type Date Time Source
WIDD Decoded METAR 2024/04/18 06:30 UTC NOAA

Station name not available
Apr 18, 2024 - 02:30 AM EDT / 2024.04.18 0630 UTC
Wind: from the NNW (340 degrees) at 3 MPH (3 KT):0
Visibility: greater than 7 mile(s):0
Sky conditions: mostly clear
Temperature: 86 F (30 C)
Heat index: 95.0 F (35.0 C):1
Dew Point: 75 F (24 C)
Relative Humidity: 70%
Pressure (altimeter): 29.80 in. Hg (1009 hPa)
ob: WIDD 180630Z 34003KT 9999 FEW014 30/24 Q1009 NOSIG
cycle: 6

Station Type Date Time Source
WIDD TAF 2024/04/18 06:00 UTC NOAA